Time,TemperatureF,DewpointF,PressureIn,WindDirection,WindDirectionDegrees,WindSpeedMPH,WindSpeedGustMPH,Humidity,HourlyPrecipIn,Conditions,Clouds,dailyrainin,SoftwareType,DateUTC
2013-01-10 00:00:00,42.0,33.0,-100.00,WNW,292,8.0,-999.0,70,0.00,,,-99.99,,2013-01-10 08:00:00,
2013-01-10 00:22:00,42.0,33.0,-100.00,WNW,292,8.0,-999.0,70,0.00,,,-99.99,,2013-01-10 08:22:00,
2013-01-10 00:32:00,42.0,33.0,-100.00,WNW,292,8.0,-999.0,70,0.00,,,-99.99,,2013-01-10 08:32:00,
2013-01-10 00:42:00,42.0,33.0,-100.00,WNW,292,8.0,-999.0,70,0.00,,,-99.99,,2013-01-10 08:42:00,
2013-01-10 00:52:00,42.0,33.0,-100.00,WNW,292,8.0,-999.0,70,0.00,,,-99.99,,2013-01-10 08:52:00,
2013-01-10 01:22:00,42.0,33.0,-100.00,NW,311,5.0,-999.0,67,0.00,,,-99.99,,2013-01-10 09:22:00,
2013-01-10 01:32:00,42.0,33.0,-100.00,NW,311,5.0,-999.0,67,0.00,,,-99.99,,2013-01-10 09:32:00,
2013-01-10 01:42:00,42.0,33.0,-100.00,NW,311,5.0,-999.0,67,0.00,,,-99.99,,2013-01-10 09:42:00,
2013-01-10 01:52:00,42.0,33.0,-100.00,NW,311,5.0,-999.0,67,0.00,,,-99.99,,2013-01-10 09:52:00,
2013-01-10 02:00:00,41.0,33.0,-100.00,NW,314,6.0,-999.0,71,0.00,,,-99.99,,2013-01-10 10:00:00,
2013-01-10 02:22:00,41.0,33.0,-100.00,NW,314,6.0,-999.0,71,0.00,,,-99.99,,2013-01-10 10:22:00,
2013-01-10 02:33:00,41.0,33.0,-100.00,NW,314,6.0,-999.0,71,0.00,,,-99.99,,2013-01-10 10:33:00,
2013-01-10 02:42:00,41.0,33.0,-100.00,NW,314,6.0,-999.0,71,0.00,,,-99.99,,2013-01-10 10:42:00,
2013-01-10 02:52:00,41.0,33.0,-100.00,NW,314,6.0,-999.0,71,0.00,,,-99.99,,2013-01-10 10:52:00,
2013-01-10 03:00:00,41.0,33.0,-100.00,WNW,303,9.0,-999.0,71,0.00,,,-99.99,,2013-01-10 11:00:00,
2013-01-10 03:23:00,41.0,33.0,-100.00,WNW,303,9.0,-999.0,71,0.00,,,-99.99,,2013-01-10 11:23:00,
2013-01-10 03:33:00,41.0,33.0,-100.00,WNW,303,9.0,-999.0,71,0.00,,,-99.99,,2013-01-10 11:33:00,
2013-01-10 03:43:00,41.0,33.0,-100.00,WNW,303,9.0,-999.0,71,0.00,,,-99.99,,2013-01-10 11:43:00,
2013-01-10 03:53:00,41.0,33.0,-100.00,WNW,303,9.0,-999.0,71,0.00,,,-99.99,,2013-01-10 11:53:00,
2013-01-10 04:00:00,41.0,33.0,-100.00,NW,319,7.0,-999.0,71,0.00,,,-99.99,,2013-01-10 12:00:00,
2013-01-10 04:22:00,41.0,33.0,-100.00,NW,319,7.0,-999.0,71,0.00,,,-99.99,,2013-01-10 12:22:00,
2013-01-10 04:33:00,41.0,33.0,-100.00,NW,319,7.0,-999.0,71,0.00,,,-99.99,,2013-01-10 12:33:00,
2013-01-10 04:43:00,41.0,33.0,-100.00,NW,319,7.0,-999.0,71,0.00,,,-99.99,,2013-01-10 12:43:00,
2013-01-10 04:53:00,41.0,33.0,-100.00,NW,319,7.0,-999.0,71,0.00,,,-99.99,,2013-01-10 12:53:00,
2013-01-10 05:00:00,37.0,33.0,-100.00,North,356,7.0,-999.0,84,0.00,,,-99.99,,2013-01-10 13:00:00,
2013-01-10 05:22:00,37.0,33.0,-100.00,North,356,7.0,-999.0,84,0.00,,,-99.99,,2013-01-10 13:22:00,
2013-01-10 05:33:00,37.0,33.0,-100.00,North,356,7.0,-999.0,84,0.00,,,-99.99,,2013-01-10 13:33:00,
2013-01-10 05:42:00,37.0,33.0,-100.00,North,356,7.0,-999.0,84,0.00,,,-99.99,,2013-01-10 13:42:00,
2013-01-10 05:53:00,37.0,33.0,-100.00,North,356,7.0,-999.0,84,0.00,,,-99.99,,2013-01-10 13:53:00,
2013-01-10 06:00:00,39.0,33.0,-100.00,NNW,341,5.0,-999.0,78,0.00,,,-99.99,,2013-01-10 14:00:00,
2013-01-10 06:22:00,39.0,33.0,-100.00,NNW,341,5.0,-999.0,78,0.00,,,-99.99,,2013-01-10 14:22:00,
2013-01-10 06:33:00,39.0,33.0,-100.00,NNW,341,5.0,-999.0,78,0.00,,,-99.99,,2013-01-10 14:33:00,
2013-01-10 06:43:00,39.0,33.0,-100.00,NNW,341,5.0,-999.0,78,0.00,,,-99.99,,2013-01-10 14:43:00,
2013-01-10 06:53:00,39.0,33.0,-100.00,NNW,341,5.0,-999.0,78,0.00,,,-99.99,,2013-01-10 14:53:00,
2013-01-10 07:00:00,39.0,32.0,-100.00,West,270,6.0,-999.0,76,0.00,,,-99.99,,2013-01-10 15:00:00,
2013-01-10 07:23:00,39.0,32.0,-100.00,West,270,6.0,-999.0,76,0.00,,,-99.99,,2013-01-10 15:23:00,
2013-01-10 07:33:00,39.0,32.0,-100.00,West,270,6.0,-999.0,76,0.00,,,-99.99,,2013-01-10 15:33:00,
2013-01-10 08:00:00,39.0,32.0,-100.00,WNW,293,6.0,-999.0,76,0.00,,,-99.99,,2013-01-10 16:00:00,
2013-01-10 08:23:00,39.0,32.0,-100.00,WNW,293,6.0,-999.0,76,0.00,,,-99.99,,2013-01-10 16:23:00,
2013-01-10 08:33:00,39.0,32.0,-100.00,WNW,293,6.0,-999.0,76,0.00,,,-99.99,,2013-01-10 16:33:00,
2013-01-10 09:00:00,40.0,33.0,-100.00,NNW,341,5.0,-999.0,73,0.00,,,-99.99,,2013-01-10 17:00:00,
2013-01-10 09:23:00,40.0,33.0,-100.00,NNW,341,5.0,-999.0,73,0.00,,,-99.99,,2013-01-10 17:23:00,
2013-01-10 09:33:00,40.0,33.0,-100.00,NNW,341,5.0,-999.0,73,0.00,,,-99.99,,2013-01-10 17:33:00,
2013-01-10 09:43:00,40.0,33.0,-100.00,NNW,341,5.0,-999.0,73,0.00,,,-99.99,,2013-01-10 17:43:00,
2013-01-10 09:53:00,40.0,33.0,-100.00,NNW,341,5.0,-999.0,73,0.00,,,-99.99,,2013-01-10 17:53:00,
2013-01-10 11:00:00,45.0,33.0,-100.00,NNW,332,8.0,-999.0,64,0.00,,,-99.99,,2013-01-10 19:00:00,
2013-01-10 11:23:00,45.0,33.0,-100.00,NNW,332,8.0,-999.0,64,0.00,,,-99.99,,2013-01-10 19:23:00,
2013-01-10 11:33:00,45.0,33.0,-100.00,NNW,332,8.0,-999.0,64,0.00,,,-99.99,,2013-01-10 19:33:00,
2013-01-10 11:43:00,45.0,33.0,-100.00,NNW,332,8.0,-999.0,64,0.00,,,-99.99,,2013-01-10 19:43:00,
2013-01-10 11:53:00,45.0,33.0,-100.00,NNW,332,8.0,-999.0,64,0.00,,,-99.99,,2013-01-10 19:53:00,
2013-01-10 12:00:00,46.0,31.0,-100.00,NNW,327,10.0,-999.0,56,0.00,,,-99.99,,2013-01-10 20:00:00,
2013-01-10 12:24:00,46.0,31.0,-100.00,NNW,327,10.0,-999.0,56,0.00,,,-99.99,,2013-01-10 20:24:00,
2013-01-10 12:33:00,46.0,31.0,-100.00,NNW,327,10.0,-999.0,56,0.00,,,-99.99,,2013-01-10 20:33:00,
2013-01-10 12:43:00,46.0,31.0,-100.00,NNW,327,10.0,-999.0,56,0.00,,,-99.99,,2013-01-10 20:43:00,
2013-01-10 12:53:00,46.0,31.0,-100.00,NNW,327,10.0,-999.0,56,0.00,,,-99.99,,2013-01-10 20:53:00,
2013-01-10 13:00:00,48.0,31.0,-100.00,North,0,4.0,-999.0,51,0.00,,,-99.99,,2013-01-10 21:00:00,
2013-01-10 13:23:00,48.0,31.0,-100.00,North,0,4.0,-999.0,51,0.00,,,-99.99,,2013-01-10 21:23:00,
2013-01-10 13:33:00,48.0,31.0,-100.00,North,0,4.0,-999.0,51,0.00,,,-99.99,,2013-01-10 21:33:00,
2013-01-10 13:43:00,48.0,31.0,-100.00,North,0,4.0,-999.0,51,0.00,,,-99.99,,2013-01-10 21:43:00,
2013-01-10 13:53:00,48.0,31.0,-100.00,North,0,4.0,-999.0,51,0.00,,,-99.99,,2013-01-10 21:53:00,
2013-01-10 14:00:00,50.0,28.0,-100.00,WNW,302,9.0,-999.0,42,0.00,,,-99.99,,2013-01-10 22:00:00,
2013-01-10 14:27:00,50.0,28.0,-100.00,WNW,302,9.0,-999.0,42,0.00,,,-99.99,,2013-01-10 22:27:00,
2013-01-10 14:34:00,50.0,28.0,-100.00,WNW,302,9.0,-999.0,42,0.00,,,-99.99,,2013-01-10 22:34:00,
2013-01-10 14:44:00,50.0,28.0,-100.00,WNW,302,9.0,-999.0,42,0.00,,,-99.99,,2013-01-10 22:44:00,
2013-01-10 15:00:00,49.0,28.0,-100.00,NNW,342,9.0,-999.0,44,0.00,,,-99.99,,2013-01-10 23:00:00,
2013-01-10 15:23:00,49.0,28.0,-100.00,NNW,342,9.0,-999.0,44,0.00,,,-99.99,,2013-01-10 23:23:00,
2013-01-10 15:33:00,49.0,28.0,-100.00,NNW,342,9.0,-999.0,44,0.00,,,-99.99,,2013-01-10 23:33:00,
2013-01-10 15:43:00,49.0,28.0,-100.00,NNW,342,9.0,-999.0,44,0.00,,,-99.99,,2013-01-10 23:43:00,
2013-01-10 15:53:00,49.0,28.0,-100.00,NNW,342,9.0,-999.0,44,0.00,,,-99.99,,2013-01-10 23:53:00,
2013-01-10 16:00:00,49.0,29.0,-100.00,NNW,343,12.0,-999.0,46,0.00,,,-99.99,,2013-01-11 00:00:00,
2013-01-10 16:23:00,49.0,29.0,-100.00,NNW,343,12.0,-999.0,46,0.00,,,-99.99,,2013-01-11 00:23:00,
2013-01-10 16:33:00,49.0,29.0,-100.00,NNW,343,12.0,-999.0,46,0.00,,,-99.99,,2013-01-11 00:33:00,
2013-01-10 16:43:00,49.0,29.0,-100.00,NNW,343,12.0,-999.0,46,0.00,,,-99.99,,2013-01-11 00:43:00,
2013-01-10 16:53:00,49.0,29.0,-100.00,NNW,343,12.0,-999.0,46,0.00,,,-99.99,,2013-01-11 00:53:00,
2013-01-10 17:00:00,48.0,29.0,-100.00,NW,311,12.0,-999.0,46,0.00,,,-99.99,,2013-01-11 01:00:00,
2013-01-10 17:24:00,48.0,29.0,-100.00,NW,311,12.0,-999.0,46,0.00,,,-99.99,,2013-01-11 01:24:00,
2013-01-10 17:34:00,48.0,29.0,-100.00,NW,311,12.0,-999.0,46,0.00,,,-99.99,,2013-01-11 01:34:00,
2013-01-10 17:43:00,48.0,29.0,-100.00,NW,311,12.0,-999.0,46,0.00,,,-99.99,,2013-01-11 01:43:00,
2013-01-10 17:53:00,48.0,29.0,-100.00,NW,311,12.0,-999.0,46,0.00,,,-99.99,,2013-01-11 01:53:00,
2013-01-10 18:00:00,46.0,30.0,-100.00,WNW,295,6.0,-999.0,52,0.00,,,-99.99,,2013-01-11 02:00:00,
2013-01-10 18:24:00,46.0,30.0,-100.00,WNW,295,6.0,-999.0,52,0.00,,,-99.99,,2013-01-11 02:24:00,
2013-01-10 18:33:00,46.0,30.0,-100.00,WNW,295,6.0,-999.0,52,0.00,,,-99.99,,2013-01-11 02:33:00,
2013-01-10 18:43:00,46.0,30.0,-100.00,WNW,295,6.0,-999.0,52,0.00,,,-99.99,,2013-01-11 02:43:00,
2013-01-10 18:54:00,46.0,30.0,-100.00,WNW,295,6.0,-999.0,52,0.00,,,-99.99,,2013-01-11 02:54:00,
2013-01-10 19:00:00,45.0,30.0,-100.00,NNW,334,10.0,-999.0,55,0.00,,,-99.99,,2013-01-11 03:00:00,
2013-01-10 19:23:00,45.0,30.0,-100.00,NNW,334,10.0,-999.0,55,0.00,,,-99.99,,2013-01-11 03:23:00,
2013-01-10 19:33:00,45.0,30.0,-100.00,NNW,334,10.0,-999.0,55,0.00,,,-99.99,,2013-01-11 03:33:00,
2013-01-10 19:43:00,45.0,30.0,-100.00,NNW,334,10.0,-999.0,55,0.00,,,-99.99,,2013-01-11 03:43:00,
2013-01-10 19:53:00,45.0,30.0,-100.00,NNW,334,10.0,-999.0,55,0.00,,,-99.99,,2013-01-11 03:53:00,
2013-01-10 20:00:00,43.0,30.0,-100.00,WNW,299,8.0,-999.0,59,0.00,,,-99.99,,2013-01-11 04:00:00,
2013-01-10 20:23:00,43.0,30.0,-100.00,WNW,299,8.0,-999.0,59,0.00,,,-99.99,,2013-01-11 04:23:00,
2013-01-10 20:33:00,43.0,30.0,-100.00,WNW,299,8.0,-999.0,59,0.00,,,-99.99,,2013-01-11 04:33:00,
2013-01-10 20:43:00,43.0,30.0,-100.00,WNW,299,8.0,-999.0,59,0.00,,,-99.99,,2013-01-11 04:43:00,
2013-01-10 20:53:00,43.0,30.0,-100.00,WNW,299,8.0,-999.0,59,0.00,,,-99.99,,2013-01-11 04:53:00,
2013-01-10 21:00:00,43.0,29.0,-100.00,NW,305,8.0,-999.0,58,0.00,,,-99.99,,2013-01-11 05:00:00,
2013-01-10 21:23:00,43.0,29.0,-100.00,NW,305,8.0,-999.0,58,0.00,,,-99.99,,2013-01-11 05:23:00,
2013-01-10 21:33:00,43.0,29.0,-100.00,NW,305,8.0,-999.0,58,0.00,,,-99.99,,2013-01-11 05:33:00,
2013-01-10 21:43:00,43.0,29.0,-100.00,NW,305,8.0,-999.0,58,0.00,,,-99.99,,2013-01-11 05:43:00,
2013-01-10 21:52:00,43.0,29.0,-100.00,NW,305,8.0,-999.0,58,0.00,,,-99.99,,2013-01-11 05:52:00,
2013-01-10 22:00:00,41.0,30.0,-100.00,NW,304,8.0,-999.0,62,0.00,,,-99.99,,2013-01-11 06:00:00,
2013-01-10 22:22:00,41.0,30.0,-100.00,NW,304,8.0,-999.0,62,0.00,,,-99.99,,2013-01-11 06:22:00,
2013-01-10 22:32:00,41.0,30.0,-100.00,NW,304,8.0,-999.0,62,0.00,,,-99.99,,2013-01-11 06:32:00,
2013-01-10 22:42:00,41.0,30.0,-100.00,NW,304,8.0,-999.0,62,0.00,,,-99.99,,2013-01-11 06:42:00,
2013-01-10 22:52:00,41.0,30.0,-100.00,NW,304,8.0,-999.0,62,0.00,,,-99.99,,2013-01-11 06:52:00,
2013-01-10 23:00:00,40.0,30.0,-100.00,WNW,282,5.0,-999.0,65,0.00,,,-99.99,,2013-01-11 07:00:00,
2013-01-10 23:22:00,40.0,30.0,-100.00,WNW,282,5.0,-999.0,65,0.00,,,-99.99,,2013-01-11 07:22:00,
2013-01-10 23:32:00,40.0,30.0,-100.00,WNW,282,5.0,-999.0,65,0.00,,,-99.99,,2013-01-11 07:32:00,
2013-01-10 23:42:00,40.0,30.0,-100.00,WNW,282,5.0,-999.0,65,0.00,,,-99.99,,2013-01-11 07:42:00,
2013-01-10 23:52:00,40.0,30.0,-100.00,WNW,282,5.0,-999.0,65,0.00,,,-99.99,,2013-01-11 07:52:00,